sensor_id;sensor_type;location;lat;lon;timestamp;pressure;altitude;pressure_sealevel;temperature
34807;BMP280;18310;55.586;12.286;2023-06-22T00:02:42;101893.56;;;22.10
34807;BMP280;18310;55.586;12.286;2023-06-22T00:05:47;101899.13;;;22.10
34807;BMP280;18310;55.586;12.286;2023-06-22T00:08:53;101863.97;;;21.89
34807;BMP280;18310;55.586;12.286;2023-06-22T00:11:58;101900.75;;;22.07
34807;BMP280;18310;55.586;12.286;2023-06-22T00:15:05;101903.91;;;22.06
34807;BMP280;18310;55.586;12.286;2023-06-22T00:18:11;101900.34;;;22.02
34807;BMP280;18310;55.586;12.286;2023-06-22T00:21:16;101900.38;;;21.98
34807;BMP280;18310;55.586;12.286;2023-06-22T00:24:24;101901.22;;;21.92
34807;BMP280;18310;55.586;12.286;2023-06-22T00:27:27;101908.31;;;21.93
34807;BMP280;18310;55.586;12.286;2023-06-22T00:30:33;101904.00;;;21.92
34807;BMP280;18310;55.586;12.286;2023-06-22T00:34:00;101913.09;;;21.89
34807;BMP280;18310;55.586;12.286;2023-06-22T00:37:04;101910.72;;;21.87
34807;BMP280;18310;55.586;12.286;2023-06-22T00:40:10;101903.22;;;21.81
34807;BMP280;18310;55.586;12.286;2023-06-22T00:43:14;101913.53;;;21.84
34807;BMP280;18310;55.586;12.286;2023-06-22T00:46:17;101919.09;;;21.80
34807;BMP280;18310;55.586;12.286;2023-06-22T00:49:23;101917.50;;;21.79
34807;BMP280;18310;55.586;12.286;2023-06-22T00:52:27;101919.06;;;21.77
34807;BMP280;18310;55.586;12.286;2023-06-22T00:55:33;101917.13;;;21.73
34807;BMP280;18310;55.586;12.286;2023-06-22T00:58:37;101917.56;;;21.68
34807;BMP280;18310;55.586;12.286;2023-06-22T01:01:44;101918.75;;;21.67
34807;BMP280;18310;55.586;12.286;2023-06-22T01:04:49;101928.66;;;21.61
34807;BMP280;18310;55.586;12.286;2023-06-22T01:08:00;101925.50;;;21.59
34807;BMP280;18310;55.586;12.286;2023-06-22T01:11:32;101932.66;;;21.57
34807;BMP280;18310;55.586;12.286;2023-06-22T01:14:42;101933.41;;;21.54
34807;BMP280;18310;55.586;12.286;2023-06-22T01:17:47;101931.06;;;21.52
34807;BMP280;18310;55.586;12.286;2023-06-22T01:20:52;101939.38;;;21.52
34807;BMP280;18310;55.586;12.286;2023-06-22T01:24:05;101940.94;;;21.53
34807;BMP280;18310;55.586;12.286;2023-06-22T01:27:28;101921.97;;;21.41
34807;BMP280;18310;55.586;12.286;2023-06-22T01:30:35;101926.72;;;21.44
34807;BMP280;18310;55.586;12.286;2023-06-22T01:33:43;101942.94;;;21.49
34807;BMP280;18310;55.586;12.286;2023-06-22T01:36:47;101946.13;;;21.44
34807;BMP280;18310;55.586;12.286;2023-06-22T01:39:50;101946.53;;;21.36
34807;BMP280;18310;55.586;12.286;2023-06-22T01:42:54;101944.91;;;21.42
34807;BMP280;18310;55.586;12.286;2023-06-22T01:46:01;101949.66;;;21.41
34807;BMP280;18310;55.586;12.286;2023-06-22T01:49:05;101944.94;;;21.38
34807;BMP280;18310;55.586;12.286;2023-06-22T01:52:09;101944.16;;;21.38
34807;BMP280;18310;55.586;12.286;2023-06-22T01:55:13;101948.13;;;21.37
34807;BMP280;18310;55.586;12.286;2023-06-22T01:58:46;101947.34;;;21.36
34807;BMP280;18310;55.586;12.286;2023-06-22T02:01:55;101953.25;;;21.35
34807;BMP280;18310;55.586;12.286;2023-06-22T02:05:03;101953.25;;;21.31
34807;BMP280;18310;55.586;12.286;2023-06-22T02:08:09;101951.31;;;21.28
34807;BMP280;18310;55.586;12.286;2023-06-22T02:11:15;101954.84;;;21.25
34807;BMP280;18310;55.586;12.286;2023-06-22T02:14:21;101955.63;;;21.22
34807;BMP280;18310;55.586;12.286;2023-06-22T02:17:25;101944.97;;;21.13
34807;BMP280;18310;55.586;12.286;2023-06-22T02:20:29;101953.69;;;21.15
34807;BMP280;18310;55.586;12.286;2023-06-22T02:23:33;101948.53;;;21.10
34807;BMP280;18310;55.586;12.286;2023-06-22T02:26:38;101950.50;;;21.10
34807;BMP280;18310;55.586;12.286;2023-06-22T02:29:45;101956.03;;;21.10
34807;BMP280;18310;55.586;12.286;2023-06-22T02:32:49;101957.22;;;21.09
34807;BMP280;18310;55.586;12.286;2023-06-22T02:36:01;101951.69;;;21.05
34807;BMP280;18310;55.586;12.286;2023-06-22T02:39:07;101964.75;;;21.05
34807;BMP280;18310;55.586;12.286;2023-06-22T02:42:10;101957.66;;;21.04
34807;BMP280;18310;55.586;12.286;2023-06-22T02:45:15;101959.22;;;21.01
34807;BMP280;18310;55.586;12.286;2023-06-22T02:48:18;101968.72;;;21.00
34807;BMP280;18310;55.586;12.286;2023-06-22T02:51:22;101965.16;;;21.00
34807;BMP280;18310;55.586;12.286;2023-06-22T02:54:25;101965.53;;;21.02
34807;BMP280;18310;55.586;12.286;2023-06-22T02:57:29;101964.75;;;20.94
34807;BMP280;18310;55.586;12.286;2023-06-22T03:00:35;101973.06;;;21.05
34807;BMP280;18310;55.586;12.286;2023-06-22T03:03:38;101969.50;;;21.08
34807;BMP280;18310;55.586;12.286;2023-06-22T03:06:42;101978.19;;;21.10
34807;BMP280;18310;55.586;12.286;2023-06-22T03:09:45;101980.97;;;21.10
34807;BMP280;18310;55.586;12.286;2023-06-22T03:12:49;101990.06;;;21.14
34807;BMP280;18310;55.586;12.286;2023-06-22T03:15:54;101986.91;;;21.19
34807;BMP280;18310;55.586;12.286;2023-06-22T03:18:58;101987.28;;;21.21
34807;BMP280;18310;55.586;12.286;2023-06-22T03:22:01;101991.25;;;21.20
34807;BMP280;18310;55.586;12.286;2023-06-22T03:25:05;101987.72;;;21.16
34807;BMP280;18310;55.586;12.286;2023-06-22T03:28:13;101988.06;;;21.18
34807;BMP280;18310;55.586;12.286;2023-06-22T03:31:17;101992.44;;;21.19
34807;BMP280;18310;55.586;12.286;2023-06-22T03:34:24;101990.03;;;21.21
34807;BMP280;18310;55.586;12.286;2023-06-22T03:37:27;101989.66;;;21.26
34807;BMP280;18310;55.586;12.286;2023-06-22T03:40:31;101997.56;;;21.31
34807;BMP280;18310;55.586;12.286;2023-06-22T03:43:34;102001.94;;;21.39
34807;BMP280;18310;55.586;12.286;2023-06-22T03:46:39;101997.97;;;21.47
34807;BMP280;18310;55.586;12.286;2023-06-22T03:49:42;102003.47;;;21.58
34807;BMP280;18310;55.586;12.286;2023-06-22T03:52:46;102003.47;;;21.68
34807;BMP280;18310;55.586;12.286;2023-06-22T03:55:50;102009.38;;;21.85
34807;BMP280;18310;55.586;12.286;2023-06-22T03:58:55;102012.88;;;22.03
34807;BMP280;18310;55.586;12.286;2023-06-22T04:02:00;102012.78;;;22.24
34807;BMP280;18310;55.586;12.286;2023-06-22T04:05:04;102005.56;;;22.41
34807;BMP280;18310;55.586;12.286;2023-06-22T04:08:08;102005.44;;;22.58
34807;BMP280;18310;55.586;12.286;2023-06-22T04:11:12;102004.88;;;22.88
34807;BMP280;18310;55.586;12.286;2023-06-22T04:14:15;101998.97;;;23.27
34807;BMP280;18310;55.586;12.286;2023-06-22T04:17:20;101999.13;;;23.54
34807;BMP280;18310;55.586;12.286;2023-06-22T04:20:28;102000.59;;;23.95
34807;BMP280;18310;55.586;12.286;2023-06-22T04:23:32;102008.47;;;24.31
34807;BMP280;18310;55.586;12.286;2023-06-22T04:26:36;102005.69;;;24.57
34807;BMP280;18310;55.586;12.286;2023-06-22T04:29:39;101991.19;;;24.70
34807;BMP280;18310;55.586;12.286;2023-06-22T04:32:52;102001.84;;;24.98
34807;BMP280;18310;55.586;12.286;2023-06-22T04:36:01;101999.34;;;25.26
34807;BMP280;18310;55.586;12.286;2023-06-22T04:39:06;102008.28;;;25.57
34807;BMP280;18310;55.586;12.286;2023-06-22T04:42:12;102010.94;;;25.84
34807;BMP280;18310;55.586;12.286;2023-06-22T04:45:15;102017.22;;;26.08
34807;BMP280;18310;55.586;12.286;2023-06-22T04:48:21;102018.19;;;26.17
34807;BMP280;18310;55.586;12.286;2023-06-22T04:51:24;102027.59;;;26.23
34807;BMP280;18310;55.586;12.286;2023-06-22T04:54:34;102034.09;;;26.36
34807;BMP280;18310;55.586;12.286;2023-06-22T04:57:38;102033.06;;;26.46
34807;BMP280;18310;55.586;12.286;2023-06-22T05:00:42;102033.00;;;26.50
34807;BMP280;18310;55.586;12.286;2023-06-22T05:03:48;102042.75;;;26.58
34807;BMP280;18310;55.586;12.286;2023-06-22T05:06:53;102030.72;;;26.61
34807;BMP280;18310;55.586;12.286;2023-06-22T05:09:57;102036.84;;;26.72
34807;BMP280;18310;55.586;12.286;2023-06-22T05:13:00;102036.03;;;26.72
34807;BMP280;18310;55.586;12.286;2023-06-22T05:16:05;102025.81;;;26.81
34807;BMP280;18310;55.586;12.286;2023-06-22T05:19:10;102032.03;;;26.73
34807;BMP280;18310;55.586;12.286;2023-06-22T05:22:14;102033.59;;;26.58
34807;BMP280;18310;55.586;12.286;2023-06-22T05:28:06;102035.69;;;26.70
34807;BMP280;18310;55.586;12.286;2023-06-22T05:31:14;102032.44;;;26.71
34807;BMP280;18310;55.586;12.286;2023-06-22T05:34:20;102052.28;;;26.93
34807;BMP280;18310;55.586;12.286;2023-06-22T05:37:25;102054.84;;;27.16
34807;BMP280;18310;55.586;12.286;2023-06-22T05:40:29;102048.31;;;27.51
34807;BMP280;18310;55.586;12.286;2023-06-22T05:43:34;102049.66;;;28.01
34807;BMP280;18310;55.586;12.286;2023-06-22T05:46:40;102032.53;;;28.36
34807;BMP280;18310;55.586;12.286;2023-06-22T05:49:46;102060.34;;;28.90
34807;BMP280;18310;55.586;12.286;2023-06-22T05:53:29;102058.94;;;29.51
34807;BMP280;18310;55.586;12.286;2023-06-22T05:56:32;102052.94;;;29.92
34807;BMP280;18310;55.586;12.286;2023-06-22T05:59:36;102067.63;;;30.27
34807;BMP280;18310;55.586;12.286;2023-06-22T06:02:39;102059.38;;;30.50
34807;BMP280;18310;55.586;12.286;2023-06-22T06:05:46;102047.09;;;30.93
34807;BMP280;18310;55.586;12.286;2023-06-22T06:08:51;102056.63;;;31.23
34807;BMP280;18310;55.586;12.286;2023-06-22T06:11:56;102051.28;;;31.34
34807;BMP280;18310;55.586;12.286;2023-06-22T06:15:01;102043.25;;;31.60
34807;BMP280;18310;55.586;12.286;2023-06-22T06:18:05;102045.53;;;31.79
34807;BMP280;18310;55.586;12.286;2023-06-22T06:21:09;102048.75;;;31.87
34807;BMP280;18310;55.586;12.286;2023-06-22T06:24:15;102058.75;;;31.97
34807;BMP280;18310;55.586;12.286;2023-06-22T06:27:19;102046.13;;;32.16
34807;BMP280;18310;55.586;12.286;2023-06-22T06:30:23;102053.94;;;32.45
34807;BMP280;18310;55.586;12.286;2023-06-22T06:33:27;102044.16;;;32.55
34807;BMP280;18310;55.586;12.286;2023-06-22T06:36:30;102048.84;;;32.58
34807;BMP280;18310;55.586;12.286;2023-06-22T06:39:35;102052.41;;;32.58
34807;BMP280;18310;55.586;12.286;2023-06-22T06:42:39;102050.09;;;32.57
34807;BMP280;18310;55.586;12.286;2023-06-22T06:45:44;102071.16;;;32.47
34807;BMP280;18310;55.586;12.286;2023-06-22T06:48:47;102060.03;;;32.43
34807;BMP280;18310;55.586;12.286;2023-06-22T06:51:51;102058.53;;;32.33
34807;BMP280;18310;55.586;12.286;2023-06-22T06:55:18;102056.81;;;32.36
34807;BMP280;18310;55.586;12.286;2023-06-22T06:58:25;102056.81;;;32.36
34807;BMP280;18310;55.586;12.286;2023-06-22T07:01:34;102050.13;;;32.24
34807;BMP280;18310;55.586;12.286;2023-06-22T07:04:38;102058.56;;;32.00
34807;BMP280;18310;55.586;12.286;2023-06-22T07:07:41;102055.41;;;31.84
34807;BMP280;18310;55.586;12.286;2023-06-22T07:10:47;102060.56;;;32.09
34807;BMP280;18310;55.586;12.286;2023-06-22T07:13:53;102051.19;;;32.36
34807;BMP280;18310;55.586;12.286;2023-06-22T07:17:08;102053.31;;;32.64
34807;BMP280;18310;55.586;12.286;2023-06-22T07:20:14;102052.47;;;32.87
34807;BMP280;18310;55.586;12.286;2023-06-22T07:23:17;102053.19;;;32.97
34807;BMP280;18310;55.586;12.286;2023-06-22T07:26:22;102061.19;;;33.13
34807;BMP280;18310;55.586;12.286;2023-06-22T07:29:25;102061.78;;;33.32
34807;BMP280;18310;55.586;12.286;2023-06-22T07:32:29;102062.84;;;33.34
34807;BMP280;18310;55.586;12.286;2023-06-22T07:35:32;102067.59;;;32.99
34807;BMP280;18310;55.586;12.286;2023-06-22T07:38:36;102069.66;;;32.60
34807;BMP280;18310;55.586;12.286;2023-06-22T07:41:41;102071.44;;;32.25
34807;BMP280;18310;55.586;12.286;2023-06-22T07:44:44;102051.13;;;31.88
34807;BMP280;18310;55.586;12.286;2023-06-22T07:47:48;102051.06;;;31.65
34807;BMP280;18310;55.586;12.286;2023-06-22T07:50:52;102058.50;;;31.35
34807;BMP280;18310;55.586;12.286;2023-06-22T07:53:56;102058.22;;;31.15
34807;BMP280;18310;55.586;12.286;2023-06-22T07:57:01;102053.22;;;31.01
34807;BMP280;18310;55.586;12.286;2023-06-22T08:01:33;102053.19;;;30.74
34807;BMP280;18310;55.586;12.286;2023-06-22T08:04:38;102061.00;;;30.60
34807;BMP280;18310;55.586;12.286;2023-06-22T08:07:43;102046.91;;;30.51
34807;BMP280;18310;55.586;12.286;2023-06-22T08:10:52;102037.81;;;30.47
34807;BMP280;18310;55.586;12.286;2023-06-22T08:13:55;102041.59;;;30.44
34807;BMP280;18310;55.586;12.286;2023-06-22T08:17:02;102046.56;;;30.40
34807;BMP280;18310;55.586;12.286;2023-06-22T08:20:07;102048.16;;;30.41
34807;BMP280;18310;55.586;12.286;2023-06-22T08:23:14;102047.84;;;30.48
34807;BMP280;18310;55.586;12.286;2023-06-22T08:26:18;102050.97;;;30.50
34807;BMP280;18310;55.586;12.286;2023-06-22T08:29:22;102049.41;;;30.49
34807;BMP280;18310;55.586;12.286;2023-06-22T08:32:27;102061.75;;;30.52
34807;BMP280;18310;55.586;12.286;2023-06-22T08:35:31;102059.06;;;30.48
34807;BMP280;18310;55.586;12.286;2023-06-22T08:38:34;102063.44;;;30.40
34807;BMP280;18310;55.586;12.286;2023-06-22T08:41:38;102063.13;;;30.47
34807;BMP280;18310;55.586;12.286;2023-06-22T08:44:42;102046.59;;;30.49
34807;BMP280;18310;55.586;12.286;2023-06-22T08:47:47;102049.13;;;30.56
34807;BMP280;18310;55.586;12.286;2023-06-22T08:50:52;102048.47;;;30.61
34807;BMP280;18310;55.586;12.286;2023-06-22T08:53:57;102053.66;;;30.63
34807;BMP280;18310;55.586;12.286;2023-06-22T08:57:01;102050.16;;;30.50
34807;BMP280;18310;55.586;12.286;2023-06-22T09:00:06;102059.28;;;30.63
34807;BMP280;18310;55.586;12.286;2023-06-22T09:03:20;102047.88;;;30.66
34807;BMP280;18310;55.586;12.286;2023-06-22T09:06:31;102051.16;;;30.65
34807;BMP280;18310;55.586;12.286;2023-06-22T09:09:34;102048.31;;;30.56
34807;BMP280;18310;55.586;12.286;2023-06-22T09:12:39;102036.72;;;30.27
34807;BMP280;18310;55.586;12.286;2023-06-22T09:15:43;102059.38;;;30.32
34807;BMP280;18310;55.586;12.286;2023-06-22T09:18:49;102069.84;;;30.41
34807;BMP280;18310;55.586;12.286;2023-06-22T09:21:53;102066.28;;;30.49
34807;BMP280;18310;55.586;12.286;2023-06-22T09:24:57;102053.16;;;30.55
34807;BMP280;18310;55.586;12.286;2023-06-22T09:28:02;102050.06;;;30.62
34807;BMP280;18310;55.586;12.286;2023-06-22T09:31:06;102059.75;;;30.70
34807;BMP280;18310;55.586;12.286;2023-06-22T09:34:12;102053.38;;;30.79
34807;BMP280;18310;55.586;12.286;2023-06-22T09:37:16;102059.91;;;30.85
34807;BMP280;18310;55.586;12.286;2023-06-22T09:40:20;102051.66;;;30.91
34807;BMP280;18310;55.586;12.286;2023-06-22T09:43:23;102043.84;;;30.86
34807;BMP280;18310;55.586;12.286;2023-06-22T09:46:26;102039.44;;;30.85
34807;BMP280;18310;55.586;12.286;2023-06-22T09:49:32;102038.53;;;30.88
34807;BMP280;18310;55.586;12.286;2023-06-22T09:52:49;102040.53;;;30.96
34807;BMP280;18310;55.586;12.286;2023-06-22T09:56:19;102037.25;;;31.07
34807;BMP280;18310;55.586;12.286;2023-06-22T09:59:25;102036.47;;;31.06
34807;BMP280;18310;55.586;12.286;2023-06-22T10:02:32;102037.56;;;31.09
34807;BMP280;18310;55.586;12.286;2023-06-22T10:05:51;102024.47;;;30.97
34807;BMP280;18310;55.586;12.286;2023-06-22T10:08:55;102033.50;;;31.01
34807;BMP280;18310;55.586;12.286;2023-06-22T10:12:00;102032.72;;;31.09
34807;BMP280;18310;55.586;12.286;2023-06-22T10:15:06;102042.41;;;31.08
34807;BMP280;18310;55.586;12.286;2023-06-22T10:18:10;102041.47;;;31.11
34807;BMP280;18310;55.586;12.286;2023-06-22T10:21:14;102042.25;;;31.21
34807;BMP280;18310;55.586;12.286;2023-06-22T10:24:18;102038.00;;;31.16
34807;BMP280;18310;55.586;12.286;2023-06-22T10:27:45;102033.47;;;31.37
34807;BMP280;18310;55.586;12.286;2023-06-22T10:30:49;102035.63;;;31.42
34807;BMP280;18310;55.586;12.286;2023-06-22T10:33:54;102036.13;;;31.40
34807;BMP280;18310;55.586;12.286;2023-06-22T10:37:00;102030.00;;;31.42
34807;BMP280;18310;55.586;12.286;2023-06-22T10:40:05;102041.53;;;31.53
34807;BMP280;18310;55.586;12.286;2023-06-22T10:43:11;102028.69;;;31.61
34807;BMP280;18310;55.586;12.286;2023-06-22T10:46:15;102028.69;;;31.70
34807;BMP280;18310;55.586;12.286;2023-06-22T10:49:19;102035.09;;;31.62
34807;BMP280;18310;55.586;12.286;2023-06-22T10:52:23;102025.38;;;31.72
34807;BMP280;18310;55.586;12.286;2023-06-22T10:55:26;102024.25;;;31.78
34807;BMP280;18310;55.586;12.286;2023-06-22T10:58:49;102022.06;;;31.73
34807;BMP280;18310;55.586;12.286;2023-06-22T11:01:55;102014.28;;;31.68
34807;BMP280;18310;55.586;12.286;2023-06-22T11:05:00;102023.47;;;31.78
34807;BMP280;18310;55.586;12.286;2023-06-22T11:08:03;102010.78;;;31.82
34807;BMP280;18310;55.586;12.286;2023-06-22T11:11:07;102024.41;;;31.75
34807;BMP280;18310;55.586;12.286;2023-06-22T11:14:13;102011.38;;;31.86
34807;BMP280;18310;55.586;12.286;2023-06-22T11:17:17;102022.13;;;31.97
34807;BMP280;18310;55.586;12.286;2023-06-22T11:20:21;102017.72;;;32.05
34807;BMP280;18310;55.586;12.286;2023-06-22T11:23:27;102008.88;;;32.12
34807;BMP280;18310;55.586;12.286;2023-06-22T11:26:32;102020.00;;;32.15
34807;BMP280;18310;55.586;12.286;2023-06-22T11:29:37;102010.09;;;32.20
34807;BMP280;18310;55.586;12.286;2023-06-22T11:32:41;102018.00;;;32.31
34807;BMP280;18310;55.586;12.286;2023-06-22T11:35:45;102012.31;;;32.40
34807;BMP280;18310;55.586;12.286;2023-06-22T11:38:49;102018.59;;;32.35
34807;BMP280;18310;55.586;12.286;2023-06-22T11:41:57;102015.19;;;32.31
34807;BMP280;18310;55.586;12.286;2023-06-22T11:45:04;102011.31;;;32.28
34807;BMP280;18310;55.586;12.286;2023-06-22T11:48:09;102005.03;;;32.24
34807;BMP280;18310;55.586;12.286;2023-06-22T11:51:13;102011.75;;;32.27
34807;BMP280;18310;55.586;12.286;2023-06-22T11:54:18;102006.91;;;32.27
34807;BMP280;18310;55.586;12.286;2023-06-22T11:57:22;102010.69;;;32.24
34807;BMP280;18310;55.586;12.286;2023-06-22T12:00:27;102013.38;;;32.18
34807;BMP280;18310;55.586;12.286;2023-06-22T12:03:31;102011.72;;;32.12
34807;BMP280;18310;55.586;12.286;2023-06-22T12:06:37;102002.47;;;32.11
34807;BMP280;18310;55.586;12.286;2023-06-22T12:09:44;102012.78;;;32.14
34807;BMP280;18310;55.586;12.286;2023-06-22T12:12:48;102009.50;;;32.16
34807;BMP280;18310;55.586;12.286;2023-06-22T12:15:53;102010.47;;;32.13
34807;BMP280;18310;55.586;12.286;2023-06-22T12:18:57;102002.63;;;32.08
34807;BMP280;18310;55.586;12.286;2023-06-22T12:22:01;102001.28;;;32.03
34807;BMP280;18310;55.586;12.286;2023-06-22T12:25:05;102003.78;;;32.01
34807;BMP280;18310;55.586;12.286;2023-06-22T12:28:08;102002.06;;;32.04
34807;BMP280;18310;55.586;12.286;2023-06-22T12:31:15;101997.78;;;32.08
34807;BMP280;18310;55.586;12.286;2023-06-22T12:34:18;102011.22;;;32.13
34807;BMP280;18310;55.586;12.286;2023-06-22T12:37:22;102000.72;;;32.14
34807;BMP280;18310;55.586;12.286;2023-06-22T12:40:25;101994.75;;;32.21
34807;BMP280;18310;55.586;12.286;2023-06-22T12:43:30;101996.72;;;32.30
34807;BMP280;18310;55.586;12.286;2023-06-22T12:46:36;101991.03;;;32.39
34807;BMP280;18310;55.586;12.286;2023-06-22T12:49:40;101986.72;;;32.43
34807;BMP280;18310;55.586;12.286;2023-06-22T12:52:44;101981.00;;;32.38
34807;BMP280;18310;55.586;12.286;2023-06-22T12:55:47;101996.91;;;32.50
34807;BMP280;18310;55.586;12.286;2023-06-22T12:58:51;101995.84;;;32.62
34807;BMP280;18310;55.586;12.286;2023-06-22T13:02:06;101988.72;;;32.66
34807;BMP280;18310;55.586;12.286;2023-06-22T13:05:12;101978.22;;;32.67
34807;BMP280;18310;55.586;12.286;2023-06-22T13:08:24;101987.38;;;32.62
34807;BMP280;18310;55.586;12.286;2023-06-22T13:11:47;101971.13;;;32.57
34807;BMP280;18310;55.586;12.286;2023-06-22T13:14:52;101984.06;;;32.63
34807;BMP280;18310;55.586;12.286;2023-06-22T13:17:58;101987.47;;;32.67
34807;BMP280;18310;55.586;12.286;2023-06-22T13:21:02;101968.97;;;32.66
34807;BMP280;18310;55.586;12.286;2023-06-22T13:24:06;101972.41;;;32.70
34807;BMP280;18310;55.586;12.286;2023-06-22T13:27:10;101985.06;;;32.75
34807;BMP280;18310;55.586;12.286;2023-06-22T13:30:15;101974.84;;;32.77
34807;BMP280;18310;55.586;12.286;2023-06-22T13:33:20;101975.91;;;32.80
34807;BMP280;18310;55.586;12.286;2023-06-22T13:36:23;101972.81;;;32.78
34807;BMP280;18310;55.586;12.286;2023-06-22T13:39:26;101978.16;;;32.76
34807;BMP280;18310;55.586;12.286;2023-06-22T13:42:30;101974.34;;;32.64
34807;BMP280;18310;55.586;12.286;2023-06-22T13:45:34;101980.69;;;32.74
34807;BMP280;18310;55.586;12.286;2023-06-22T13:48:40;101973.78;;;32.75
34807;BMP280;18310;55.586;12.286;2023-06-22T13:52:04;101968.69;;;32.64
34807;BMP280;18310;55.586;12.286;2023-06-22T13:55:13;101966.81;;;32.47
34807;BMP280;18310;55.586;12.286;2023-06-22T13:58:16;101966.78;;;32.32
34807;BMP280;18310;55.586;12.286;2023-06-22T14:01:22;101970.75;;;32.26
34807;BMP280;18310;55.586;12.286;2023-06-22T14:04:32;101970.47;;;32.24
34807;BMP280;18310;55.586;12.286;2023-06-22T14:07:41;101951.50;;;32.24
34807;BMP280;18310;55.586;12.286;2023-06-22T14:10:44;101938.47;;;32.27
34807;BMP280;18310;55.586;12.286;2023-06-22T14:13:48;101942.88;;;32.28
34807;BMP280;18310;55.586;12.286;2023-06-22T14:16:51;101940.84;;;32.28
34807;BMP280;18310;55.586;12.286;2023-06-22T14:20:05;101933.56;;;32.36
34807;BMP280;18310;55.586;12.286;2023-06-22T14:23:13;101935.75;;;32.32
34807;BMP280;18310;55.586;12.286;2023-06-22T14:26:20;101930.34;;;32.29
34807;BMP280;18310;55.586;12.286;2023-06-22T14:29:25;101924.03;;;32.34
34807;BMP280;18310;55.586;12.286;2023-06-22T14:32:32;101927.25;;;32.41
34807;BMP280;18310;55.586;12.286;2023-06-22T14:35:37;101933.00;;;32.47
34807;BMP280;18310;55.586;12.286;2023-06-22T14:38:41;101927.34;;;32.47
34807;BMP280;18310;55.586;12.286;2023-06-22T14:41:45;101923.25;;;32.48
34807;BMP280;18310;55.586;12.286;2023-06-22T14:44:49;101919.03;;;32.52
34807;BMP280;18310;55.586;12.286;2023-06-22T14:47:53;101910.66;;;32.58
34807;BMP280;18310;55.586;12.286;2023-06-22T14:50:56;101914.53;;;32.60
34807;BMP280;18310;55.586;12.286;2023-06-22T14:54:01;101911.81;;;32.51
34807;BMP280;18310;55.586;12.286;2023-06-22T14:57:06;101915.19;;;32.41
34807;BMP280;18310;55.586;12.286;2023-06-22T15:00:12;101920.72;;;32.35
34807;BMP280;18310;55.586;12.286;2023-06-22T15:03:16;101909.34;;;32.30
34807;BMP280;18310;55.586;12.286;2023-06-22T15:06:25;101914.69;;;32.28
34807;BMP280;18310;55.586;12.286;2023-06-22T15:09:31;101917.00;;;32.29
34807;BMP280;18310;55.586;12.286;2023-06-22T15:12:37;101919.53;;;32.27
34807;BMP280;18310;55.586;12.286;2023-06-22T15:15:43;101919.06;;;32.29
34807;BMP280;18310;55.586;12.286;2023-06-22T15:19:01;101924.38;;;32.27
34807;BMP280;18310;55.586;12.286;2023-06-22T15:22:06;101926.50;;;32.17
34807;BMP280;18310;55.586;12.286;2023-06-22T15:25:11;101917.66;;;32.24
34807;BMP280;18310;55.586;12.286;2023-06-22T15:28:15;101919.09;;;32.19
34807;BMP280;18310;55.586;12.286;2023-06-22T15:31:19;101910.75;;;32.10
34807;BMP280;18310;55.586;12.286;2023-06-22T15:34:22;101905.47;;;32.03
34807;BMP280;18310;55.586;12.286;2023-06-22T15:37:26;101906.91;;;31.99
34807;BMP280;18310;55.586;12.286;2023-06-22T15:40:31;101906.31;;;31.95
34807;BMP280;18310;55.586;12.286;2023-06-22T15:43:35;101904.34;;;31.86
34807;BMP280;18310;55.586;12.286;2023-06-22T15:46:39;101889.16;;;31.60
34807;BMP280;18310;55.586;12.286;2023-06-22T15:49:42;101896.72;;;31.54
34807;BMP280;18310;55.586;12.286;2023-06-22T15:52:48;101889.25;;;31.42
34807;BMP280;18310;55.586;12.286;2023-06-22T15:56:02;101881.19;;;31.35
34807;BMP280;18310;55.586;12.286;2023-06-22T15:59:06;101882.00;;;31.26
34807;BMP280;18310;55.586;12.286;2023-06-22T16:02:09;101878.25;;;31.20
34807;BMP280;18310;55.586;12.286;2023-06-22T16:05:13;101880.16;;;31.14
34807;BMP280;18310;55.586;12.286;2023-06-22T16:08:17;101876.28;;;31.03
34807;BMP280;18310;55.586;12.286;2023-06-22T16:11:22;101872.56;;;30.97
34807;BMP280;18310;55.586;12.286;2023-06-22T16:14:26;101867.91;;;30.85
34807;BMP280;18310;55.586;12.286;2023-06-22T16:17:29;101862.28;;;30.76
34807;BMP280;18310;55.586;12.286;2023-06-22T16:20:33;101859.81;;;30.68
34807;BMP280;18310;55.586;12.286;2023-06-22T16:23:37;101859.53;;;30.57
34807;BMP280;18310;55.586;12.286;2023-06-22T16:26:42;101854.97;;;30.51
34807;BMP280;18310;55.586;12.286;2023-06-22T16:29:49;101856.09;;;30.44
34807;BMP280;18310;55.586;12.286;2023-06-22T16:32:55;101857.50;;;30.40
34807;BMP280;18310;55.586;12.286;2023-06-22T16:36:01;101853.44;;;30.32
34807;BMP280;18310;55.586;12.286;2023-06-22T16:39:05;101844.84;;;30.26
34807;BMP280;18310;55.586;12.286;2023-06-22T16:42:12;101846.25;;;30.22
34807;BMP280;18310;55.586;12.286;2023-06-22T16:45:17;101834.84;;;30.16
34807;BMP280;18310;55.586;12.286;2023-06-22T16:48:21;101842.97;;;30.14
34807;BMP280;18310;55.586;12.286;2023-06-22T16:51:25;101835.19;;;30.09
34807;BMP280;18310;55.586;12.286;2023-06-22T16:56:52;101815.03;;;30.02
34807;BMP280;18310;55.586;12.286;2023-06-22T17:04:07;101807.41;;;29.93
34807;BMP280;18310;55.586;12.286;2023-06-22T17:07:14;101801.78;;;29.93
34807;BMP280;18310;55.586;12.286;2023-06-22T17:10:22;101805.06;;;30.01
34807;BMP280;18310;55.586;12.286;2023-06-22T17:13:35;101805.22;;;29.88
34807;BMP280;18310;55.586;12.286;2023-06-22T17:16:45;101810.84;;;29.97
34807;BMP280;18310;55.586;12.286;2023-06-22T17:19:54;101794.13;;;29.93
34807;BMP280;18310;55.586;12.286;2023-06-22T17:23:01;101795.84;;;29.91
34807;BMP280;18310;55.586;12.286;2023-06-22T17:26:07;101797.72;;;29.94
34807;BMP280;18310;55.586;12.286;2023-06-22T17:29:10;101799.13;;;29.89
34807;BMP280;18310;55.586;12.286;2023-06-22T17:32:14;101801.66;;;29.87